createdAt,value
2019-05-20T00:01:45.892Z,100535.95
2019-05-20T00:04:12.801Z,100539.48
2019-05-20T00:06:39.747Z,100545.22
2019-05-20T00:09:06.710Z,100541.27
2019-05-20T00:11:33.996Z,100544.36
2019-05-20T00:14:00.947Z,100536.86
2019-05-20T00:16:27.905Z,100542.16
2019-05-20T00:18:55.020Z,100540.85
2019-05-20T00:21:21.974Z,100527.65
2019-05-20T00:23:48.920Z,100532.96
2019-05-20T00:26:15.898Z,100535.61
2019-05-20T00:28:42.894Z,100539.16
2019-05-20T00:31:09.853Z,100529.03
2019-05-20T00:33:36.834Z,100525.08
2019-05-20T00:36:03.775Z,100522.00
2019-05-20T00:38:31.356Z,100525.98
2019-05-20T00:40:58.354Z,100522.89
2019-05-20T00:43:37.173Z,100523.32
2019-05-20T00:46:04.183Z,100517.16
2019-05-20T00:48:31.160Z,100518.90
2019-05-20T00:50:58.087Z,100522.88
2019-05-20T00:53:25.187Z,100517.17
2019-05-20T00:55:52.133Z,100516.27
2019-05-20T00:58:19.387Z,100516.28
2019-05-20T01:00:46.339Z,100523.33
2019-05-20T01:03:13.638Z,100527.28
2019-05-20T01:05:40.740Z,100528.16
2019-05-20T01:08:07.684Z,100526.41
2019-05-20T01:10:34.605Z,100526.84
2019-05-20T01:13:01.576Z,100523.77
2019-05-20T01:15:30.801Z,100521.57
2019-05-20T01:17:57.839Z,100521.13
2019-05-20T01:20:24.846Z,100522.02
2019-05-20T01:22:51.777Z,100524.23
2019-05-20T01:25:18.754Z,100515.42
2019-05-20T01:27:45.709Z,100518.08
2019-05-20T01:30:13.573Z,100516.77
2019-05-20T01:32:40.581Z,100518.53
2019-05-20T01:35:07.817Z,100511.92
2019-05-20T01:37:34.753Z,100511.91
2019-05-20T01:40:01.731Z,100518.52
2019-05-20T01:42:28.685Z,100523.80
2019-05-20T01:44:55.838Z,100522.03
2019-05-20T01:47:22.770Z,100523.36
2019-05-20T01:49:49.747Z,100526.44
2019-05-20T01:52:16.733Z,100526.88
2019-05-20T01:54:43.714Z,100537.89
2019-05-20T01:57:10.680Z,100536.13
2019-05-20T01:59:37.601Z,100531.72
2019-05-20T02:02:04.682Z,100529.07
2019-05-20T02:04:31.635Z,100525.11
2019-05-20T02:06:58.572Z,100525.11
2019-05-20T02:09:25.588Z,100530.84
2019-05-20T02:11:52.535Z,100537.00
2019-05-20T02:14:22.379Z,100540.52
2019-05-20T02:16:49.426Z,100546.67
2019-05-20T02:19:16.381Z,100544.47
2019-05-20T02:21:43.448Z,100550.20
2019-05-20T02:24:10.593Z,100544.90
2019-05-20T02:26:37.532Z,100543.13
2019-05-20T02:29:04.497Z,100545.33
2019-05-20T02:31:31.474Z,100549.29
2019-05-20T02:33:58.418Z,100545.77
2019-05-20T02:36:25.396Z,100545.33
2019-05-20T02:38:52.341Z,100544.00
2019-05-20T02:41:19.281Z,100546.21
2019-05-20T02:43:46.363Z,100549.73
2019-05-20T02:46:13.315Z,100551.50
2019-05-20T02:48:40.548Z,100547.09
2019-05-20T02:51:07.956Z,100547.53
2019-05-20T02:53:34.905Z,100544.45
2019-05-20T02:56:01.842Z,100545.77
2019-05-20T02:58:28.849Z,100539.60
2019-05-20T03:00:55.804Z,100537.83
2019-05-20T03:03:22.743Z,100539.59
2019-05-20T03:05:49.725Z,100540.47
2019-05-20T03:08:16.673Z,100540.91
2019-05-20T03:10:45.437Z,100546.18
2019-05-20T03:13:12.410Z,100550.59
2019-05-20T03:15:39.436Z,100545.73
2019-05-20T03:18:06.392Z,100548.80
2019-05-20T03:20:33.372Z,100550.57
2019-05-20T03:23:00.346Z,100546.59
2019-05-20T03:25:27.278Z,100545.70
2019-05-20T03:27:54.258Z,100551.42
2019-05-20T03:30:21.323Z,100557.17
2019-05-20T03:32:48.445Z,100559.81
2019-05-20T03:35:15.737Z,100559.81
2019-05-20T03:37:42.676Z,100552.77
2019-05-20T03:40:09.833Z,100557.61
2019-05-20T03:42:36.817Z,100553.20
2019-05-20T03:45:04.866Z,100563.35
2019-05-20T03:47:31.810Z,100566.88
2019-05-20T03:49:58.779Z,100564.26
2019-05-20T03:52:25.728Z,100569.97
2019-05-20T03:54:52.689Z,100563.35
2019-05-20T03:57:21.892Z,100555.87
2019-05-20T03:59:49.944Z,100559.84
2019-05-20T04:02:16.903Z,100564.25
2019-05-20T04:05:00.611Z,100571.31
2019-05-20T04:07:14.135Z,100570.87
2019-05-20T04:09:41.088Z,100570.88
2019-05-20T04:12:08.045Z,100576.16
2019-05-20T04:14:35.038Z,100570.87
2019-05-20T04:17:03.799Z,100572.20
2019-05-20T04:19:30.800Z,100569.99
2019-05-20T04:21:59.410Z,100578.34
2019-05-20T04:24:26.446Z,100572.60
2019-05-20T04:26:57.797Z,100569.50
2019-05-20T04:29:24.776Z,100569.50
2019-05-20T04:31:53.332Z,100574.79
2019-05-20T04:34:20.256Z,100567.30
2019-05-20T04:36:47.245Z,100571.69
2019-05-20T04:39:14.202Z,100578.72
2019-05-20T04:41:41.256Z,100578.28
2019-05-20T04:44:08.235Z,100580.48
2019-05-20T04:46:37.269Z,100580.96
2019-05-20T04:49:06.094Z,100581.83
2019-05-20T04:51:33.074Z,100584.04
2019-05-20T04:53:59.994Z,100580.53
2019-05-20T04:56:29.477Z,100584.94
2019-05-20T04:58:56.684Z,100585.39
2019-05-20T05:01:23.630Z,100587.19
2019-05-20T05:03:50.582Z,100588.54
2019-05-20T05:06:17.558Z,100582.40
2019-05-20T05:08:44.505Z,100586.38
2019-05-20T05:11:11.491Z,100588.59
2019-05-20T05:13:38.453Z,100588.63
2019-05-20T05:16:05.501Z,100594.34
2019-05-20T05:18:32.571Z,100594.80
2019-05-20T05:20:59.564Z,100593.05
2019-05-20T05:23:26.544Z,100591.77
2019-05-20T05:25:54.583Z,100593.09
2019-05-20T05:28:21.596Z,100605.89
2019-05-20T05:30:48.745Z,100601.06
2019-05-20T05:33:16.802Z,100605.05
2019-05-20T05:35:52.734Z,100605.48
2019-05-20T05:38:12.662Z,100608.12
2019-05-20T05:40:39.585Z,100606.80
2019-05-20T05:43:06.915Z,100609.42
2019-05-20T05:45:33.960Z,100600.55
2019-05-20T05:48:01.418Z,100600.95
2019-05-20T05:50:28.639Z,100600.09
2019-05-20T05:52:56.252Z,100602.29
2019-05-20T05:55:24.442Z,100605.77
2019-05-20T05:57:51.445Z,100604.45
2019-05-20T06:00:19.894Z,100606.19
2019-05-20T06:02:46.913Z,100606.19
2019-05-20T06:05:14.124Z,100603.58
2019-05-20T06:07:41.124Z,100604.47
2019-05-20T06:10:08.291Z,100599.67
2019-05-20T06:12:35.296Z,100605.02
2019-05-20T06:15:04.075Z,100608.56
2019-05-20T06:17:31.033Z,100614.31
2019-05-20T06:20:00.037Z,100609.06
2019-05-20T06:22:27.060Z,100615.23
2019-05-20T06:24:54.096Z,100617.42
2019-05-20T06:27:21.043Z,100611.28
2019-05-20T06:29:47.980Z,100612.17
2019-05-20T06:32:15.389Z,100620.15
2019-05-20T06:34:43.241Z,100624.56
2019-05-20T06:37:12.259Z,100632.45
2019-05-20T06:39:39.248Z,100635.06
2019-05-20T06:42:06.197Z,100644.76
2019-05-20T06:44:33.131Z,100638.58
2019-05-20T06:47:00.117Z,100643.87
2019-05-20T06:49:27.077Z,100630.66
2019-05-20T06:51:54.034Z,100628.92
2019-05-20T06:54:21.083Z,100626.35
2019-05-20T06:56:48.727Z,100625.02
2019-05-20T06:59:15.801Z,100630.77
2019-05-20T07:01:42.824Z,100635.64
2019-05-20T07:04:09.801Z,100633.86
2019-05-20T07:06:46.725Z,100636.50
2019-05-20T07:09:05.884Z,100644.84
2019-05-20T07:11:32.814Z,100648.85
2019-05-20T07:13:59.748Z,100651.94
2019-05-20T07:16:26.772Z,100660.30
2019-05-20T07:18:53.735Z,100657.23
2019-05-20T07:21:20.694Z,100660.30
2019-05-20T07:23:47.676Z,100660.76
2019-05-20T07:26:14.922Z,100664.33
2019-05-20T07:28:41.905Z,100665.73
2019-05-20T07:31:08.997Z,100670.57
2019-05-20T07:33:35.956Z,100667.50
2019-05-20T07:36:02.908Z,100666.23
2019-05-20T07:38:29.897Z,100663.61
2019-05-20T07:40:57.704Z,100659.20
2019-05-20T07:43:25.039Z,100655.65
2019-05-20T07:45:52.398Z,100652.08
2019-05-20T07:48:37.894Z,100658.33
2019-05-20T07:51:05.686Z,100656.99
2019-05-20T07:53:33.597Z,100656.56
2019-05-20T07:56:06.333Z,100652.62
2019-05-20T07:58:35.826Z,100646.47
2019-05-20T08:01:04.583Z,100654.84
2019-05-20T08:03:31.578Z,100653.90
2019-05-20T08:05:58.510Z,100664.04
2019-05-20T08:08:25.469Z,100668.00
2019-05-20T08:10:52.453Z,100668.41
2019-05-20T08:13:20.495Z,100670.13
2019-05-20T08:15:47.423Z,100666.70
2019-05-20T08:18:17.905Z,100673.41
2019-05-20T08:20:44.568Z,100672.10
2019-05-20T08:23:11.622Z,100676.54
2019-05-20T08:25:38.653Z,100679.63
2019-05-20T08:28:05.688Z,100684.07
2019-05-20T08:30:34.692Z,100680.11
2019-05-20T08:33:01.739Z,100679.23
2019-05-20T08:35:28.681Z,100680.56
2019-05-20T08:37:55.675Z,100682.80
2019-05-20T08:40:22.631Z,100688.97
2019-05-20T08:42:49.686Z,100689.41
2019-05-20T08:45:16.938Z,100685.86
2019-05-20T08:47:43.943Z,100695.55
2019-05-20T08:50:16.111Z,100691.58
2019-05-20T08:52:41.857Z,100701.75
2019-05-20T08:55:08.801Z,100689.41
2019-05-20T08:57:35.880Z,100692.95
2019-05-20T09:00:03.442Z,100700.91
2019-05-20T09:02:30.529Z,100703.59
2019-05-20T09:04:57.495Z,100697.40
2019-05-20T09:07:24.445Z,100707.13
2019-05-20T09:09:51.398Z,100701.40
2019-05-20T09:12:18.392Z,100707.09
2019-05-20T09:14:45.329Z,100703.55
2019-05-20T09:17:12.433Z,100703.57
2019-05-20T09:19:39.388Z,100718.58
2019-05-20T09:22:06.340Z,100720.30
2019-05-20T09:24:33.554Z,100719.44
2019-05-20T09:27:00.727Z,100714.13
2019-05-20T09:29:27.682Z,100718.14
2019-05-20T09:31:54.730Z,100716.81
2019-05-20T09:34:21.668Z,100721.23
2019-05-20T09:36:48.630Z,100717.68
2019-05-20T09:39:15.664Z,100715.03
2019-05-20T09:41:42.605Z,100709.30
2019-05-20T09:44:09.539Z,100713.73
2019-05-20T09:46:36.572Z,100711.98
2019-05-20T09:49:03.550Z,100709.33
2019-05-20T09:51:30.517Z,100710.23
2019-05-20T09:53:57.491Z,100712.45
2019-05-20T09:56:26.230Z,100713.34
2019-05-20T09:58:53.252Z,100716.88
2019-05-20T10:01:20.330Z,100717.30
2019-05-20T10:03:47.541Z,100718.19
2019-05-20T10:06:14.709Z,100722.15
2019-05-20T10:08:45.029Z,100717.75
2019-05-20T10:11:10.744Z,100716.89
2019-05-20T10:13:37.701Z,100717.35
2019-05-20T10:16:04.759Z,100718.68
2019-05-20T10:18:37.425Z,100724.41
2019-05-20T10:21:00.578Z,100724.41
2019-05-20T10:23:27.578Z,100724.41
2019-05-20T10:25:54.598Z,100727.48
2019-05-20T10:28:21.636Z,100728.39
2019-05-20T10:30:48.663Z,100729.73
2019-05-20T10:33:15.586Z,100725.32
2019-05-20T10:35:42.556Z,100717.45
2019-05-20T10:38:09.533Z,100720.09
2019-05-20T10:40:37.233Z,100714.34
2019-05-20T10:43:04.305Z,100719.64
2019-05-20T10:45:32.215Z,100722.72
2019-05-20T10:47:59.245Z,100723.61
2019-05-20T10:50:26.177Z,100722.73
2019-05-20T10:52:53.165Z,100723.17
2019-05-20T10:55:20.160Z,100721.41
2019-05-20T10:57:48.245Z,100720.08
2019-05-20T11:00:15.690Z,100722.28
2019-05-20T11:02:42.659Z,100724.92
2019-05-20T11:05:09.923Z,100726.22
2019-05-20T11:07:36.980Z,100725.80
2019-05-20T11:10:05.211Z,100728.45
2019-05-20T11:12:32.214Z,100728.45
2019-05-20T11:14:59.203Z,100729.77
2019-05-20T11:17:26.166Z,100732.41
2019-05-20T11:19:53.152Z,100737.25
2019-05-20T11:22:20.149Z,100737.70
2019-05-20T11:24:48.984Z,100743.45
2019-05-20T11:27:15.970Z,100732.37
2019-05-20T11:29:44.941Z,100733.23
2019-05-20T11:32:11.911Z,100735.84
2019-05-20T11:34:38.916Z,100730.08
2019-05-20T11:37:05.914Z,100734.08
2019-05-20T11:39:34.185Z,100733.17
2019-05-20T11:42:01.271Z,100728.70
2019-05-20T11:44:28.231Z,100733.21
2019-05-20T11:46:55.226Z,100734.08
2019-05-20T11:49:22.180Z,100733.19
2019-05-20T11:51:49.118Z,100735.39
2019-05-20T11:54:16.108Z,100741.14
2019-05-20T11:56:43.065Z,100747.76
2019-05-20T11:59:10.116Z,100748.64
2019-05-20T12:01:37.126Z,100749.17
2019-05-20T12:04:04.146Z,100753.17
2019-05-20T12:06:31.178Z,100751.38
2019-05-20T12:08:58.152Z,100762.93
2019-05-20T12:11:25.110Z,100758.50
2019-05-20T12:13:52.067Z,100766.49
2019-05-20T12:16:19.049Z,100768.69
2019-05-20T12:18:46.009Z,100762.50
2019-05-20T12:21:14.764Z,100757.61
2019-05-20T12:23:43.542Z,100761.16
2019-05-20T12:26:10.528Z,100759.82
2019-05-20T12:28:38.648Z,100759.78
2019-05-20T12:31:05.659Z,100756.25
2019-05-20T12:33:32.662Z,100758.50
2019-05-20T12:35:59.604Z,100755.36
2019-05-20T12:38:26.602Z,100754.48
2019-05-20T12:40:53.624Z,100758.94
2019-05-20T12:43:20.576Z,100757.56
2019-05-20T12:45:47.627Z,100759.34
2019-05-20T12:48:14.653Z,100760.23
2019-05-20T12:50:41.711Z,100750.48
2019-05-20T12:53:08.649Z,100755.33
2019-05-20T12:55:35.801Z,100754.91
2019-05-20T12:58:02.845Z,100754.02
2019-05-20T13:00:29.803Z,100754.02
2019-05-20T13:02:56.768Z,100754.92
2019-05-20T13:05:23.748Z,100752.27
2019-05-20T13:07:50.840Z,100749.61
2019-05-20T13:10:29.130Z,100746.91
2019-05-20T13:12:50.241Z,100754.45
2019-05-20T13:15:17.496Z,100753.16
2019-05-20T13:17:45.411Z,100756.27
2019-05-20T13:20:12.948Z,100751.84
2019-05-20T13:22:39.937Z,100754.51
2019-05-20T13:25:07.185Z,100755.84
2019-05-20T13:27:35.273Z,100754.95
2019-05-20T13:30:02.427Z,100756.72
2019-05-20T13:32:29.435Z,100758.50
2019-05-20T13:34:56.399Z,100756.28
2019-05-20T13:37:23.439Z,100758.08
2019-05-20T13:39:50.558Z,100754.98
2019-05-20T13:42:17.497Z,100754.97
2019-05-20T13:44:44.480Z,100754.95
2019-05-20T13:47:11.435Z,100751.87
2019-05-20T13:49:40.603Z,100754.09
2019-05-20T13:52:10.484Z,100750.06
2019-05-20T13:54:37.576Z,100746.55
2019-05-20T13:57:05.676Z,100745.63
2019-05-20T13:59:32.676Z,100744.31
2019-05-20T14:01:59.695Z,100749.58
2019-05-20T14:04:26.636Z,100741.61
2019-05-20T14:06:53.824Z,100745.16
2019-05-20T14:09:20.908Z,100746.52
2019-05-20T14:11:47.972Z,100749.61
2019-05-20T14:14:14.986Z,100752.31
2019-05-20T14:16:41.953Z,100757.62
2019-05-20T14:19:08.881Z,100754.52
2019-05-20T14:21:35.880Z,100759.84
2019-05-20T14:24:02.939Z,100762.03
2019-05-20T14:26:29.927Z,100762.91
2019-05-20T14:28:57.086Z,100764.26
2019-05-20T14:31:24.059Z,100764.69
2019-05-20T14:33:51.022Z,100765.16
2019-05-20T14:36:37.985Z,100764.71
2019-05-20T14:38:46.904Z,100773.13
2019-05-20T14:41:21.594Z,100767.38
2019-05-20T14:43:42.804Z,100770.04
2019-05-20T14:46:09.950Z,100773.13
2019-05-20T14:48:36.924Z,100770.03
2019-05-20T14:51:04.075Z,100776.69
2019-05-20T14:53:31.034Z,100774.48
2019-05-20T14:55:57.986Z,100782.00
2019-05-20T14:58:24.967Z,100778.02
2019-05-20T15:00:52.036Z,100777.13
2019-05-20T15:03:18.983Z,100777.14
2019-05-20T15:05:45.957Z,100777.58
2019-05-20T15:08:12.916Z,100774.04
2019-05-20T15:10:39.868Z,100774.03
2019-05-20T15:13:06.924Z,100774.49
2019-05-20T15:15:34.296Z,100778.48
2019-05-20T15:18:01.278Z,100771.84
2019-05-20T15:20:29.358Z,100772.73
2019-05-20T15:22:56.460Z,100778.48
2019-05-20T15:25:23.409Z,100774.06
2019-05-20T15:27:52.202Z,100782.47
2019-05-20T15:30:19.228Z,100778.92
2019-05-20T15:32:46.182Z,100781.14
2019-05-20T15:35:13.318Z,100776.71
2019-05-20T15:37:40.250Z,100779.80
2019-05-20T15:40:07.530Z,100780.69
2019-05-20T15:42:35.685Z,100783.34
2019-05-20T15:45:06.479Z,100774.06
2019-05-20T15:47:33.432Z,100778.92
2019-05-20T15:50:00.422Z,100773.17
2019-05-20T15:52:27.364Z,100780.25
2019-05-20T15:54:54.323Z,100772.72
2019-05-20T15:57:21.296Z,100766.95
2019-05-20T15:59:48.264Z,100766.05
2019-05-20T16:02:15.219Z,100765.61
2019-05-20T16:04:42.270Z,100763.86
2019-05-20T16:07:09.319Z,100757.66
2019-05-20T16:09:36.304Z,100762.97
2019-05-20T16:12:03.259Z,100759.42
2019-05-20T16:14:30.216Z,100757.23
2019-05-20T16:16:57.276Z,100759.44
2019-05-20T16:19:24.321Z,100754.14
2019-05-20T16:21:51.265Z,100758.56
2019-05-20T16:24:18.390Z,100756.80
2019-05-20T16:26:45.550Z,100755.47
2019-05-20T16:29:12.600Z,100756.80
2019-05-20T16:31:39.715Z,100761.23
2019-05-20T16:34:06.696Z,100766.53
2019-05-20T16:36:33.747Z,100766.54
2019-05-20T16:39:00.769Z,100765.66
2019-05-20T16:41:27.724Z,100767.42
2019-05-20T16:43:55.771Z,100770.97
2019-05-20T16:46:23.080Z,100763.45
2019-05-20T16:48:50.037Z,100754.16
2019-05-20T16:51:17.000Z,100763.89
2019-05-20T16:53:43.997Z,100757.25
2019-05-20T16:56:10.955Z,100760.79
2019-05-20T16:58:41.102Z,100763.89
2019-05-20T17:01:08.135Z,100761.67
2019-05-20T17:03:35.137Z,100762.11
2019-05-20T17:06:02.116Z,100758.13
2019-05-20T17:08:29.249Z,100762.54
2019-05-20T17:10:56.223Z,100761.66
2019-05-20T17:13:23.202Z,100762.10
2019-05-20T17:15:50.298Z,100763.42
2019-05-20T17:18:17.271Z,100762.98
2019-05-20T17:20:46.301Z,100764.75
2019-05-20T17:23:14.299Z,100761.20
2019-05-20T17:25:43.131Z,100752.80
2019-05-20T17:28:10.128Z,100755.90
2019-05-20T17:30:44.902Z,100755.02
2019-05-20T17:33:06.037Z,100760.33
2019-05-20T17:35:32.985Z,100763.00
2019-05-20T17:38:00.295Z,100765.66
2019-05-20T17:40:27.290Z,100767.88
2019-05-20T17:42:54.273Z,100775.39
2019-05-20T17:45:21.372Z,100766.98
2019-05-20T17:47:48.334Z,100773.62
2019-05-20T17:50:15.813Z,100770.97
2019-05-20T17:52:42.812Z,100778.03
2019-05-20T17:55:10.617Z,100778.91
2019-05-20T17:57:37.757Z,100771.83
2019-05-20T18:00:04.970Z,100784.22
2019-05-20T18:02:31.977Z,100779.34
2019-05-20T18:04:58.994Z,100793.05
2019-05-20T18:07:27.070Z,100790.39
2019-05-20T18:09:55.109Z,100790.30
2019-05-20T18:12:22.103Z,100796.92
2019-05-20T18:14:52.284Z,100794.27
2019-05-20T18:17:19.585Z,100800.47
2019-05-20T18:19:46.696Z,100801.78
2019-05-20T18:22:13.666Z,100800.89
2019-05-20T18:24:40.738Z,100799.99
2019-05-20T18:27:08.863Z,100800.88
2019-05-20T18:29:35.908Z,100802.20
2019-05-20T18:32:03.141Z,100812.34
2019-05-20T18:34:30.099Z,100810.55
2019-05-20T18:36:57.092Z,100814.53
2019-05-20T18:39:24.087Z,100817.59
2019-05-20T18:41:51.041Z,100827.73
2019-05-20T18:44:18.122Z,100822.88
2019-05-20T18:46:45.383Z,100834.34
2019-05-20T18:49:14.252Z,100842.30
2019-05-20T18:51:41.241Z,100840.97
2019-05-20T18:54:08.854Z,100841.86
2019-05-20T18:56:35.859Z,100839.17
2019-05-20T18:59:02.982Z,100840.05
2019-05-20T19:01:29.972Z,100842.24
2019-05-20T19:03:56.953Z,100844.88
2019-05-20T19:06:25.446Z,100842.20
2019-05-20T19:08:52.431Z,100843.09
2019-05-20T19:11:21.141Z,100836.91
2019-05-20T19:13:48.152Z,100839.55
2019-05-20T19:16:15.132Z,100847.92
2019-05-20T19:18:42.131Z,100840.41
2019-05-20T19:21:09.142Z,100847.03
2019-05-20T19:23:38.595Z,100844.36
2019-05-20T19:26:05.628Z,100847.03
2019-05-20T19:28:32.597Z,100846.57
2019-05-20T19:30:59.723Z,100851.87
2019-05-20T19:33:26.984Z,100850.97
2019-05-20T19:35:54.031Z,100849.21
2019-05-20T19:38:21.014Z,100846.10
2019-05-20T19:40:48.230Z,100847.84
2019-05-20T19:43:15.197Z,100847.83
2019-05-20T19:45:42.227Z,100856.27
2019-05-20T19:48:09.335Z,100848.70
2019-05-20T19:50:36.313Z,100853.11
2019-05-20T19:53:03.302Z,100856.17
2019-05-20T19:55:30.305Z,100861.49
2019-05-20T19:57:57.377Z,100862.77
2019-05-20T20:00:24.339Z,100863.66
2019-05-20T20:02:51.547Z,100866.71
2019-05-20T20:05:18.501Z,100872.45
2019-05-20T20:07:45.754Z,100878.19
2019-05-20T20:10:13.052Z,100879.03
2019-05-20T20:12:40.057Z,100879.03
2019-05-20T20:15:09.077Z,100877.26
2019-05-20T20:17:36.085Z,100876.38
2019-05-20T20:20:03.212Z,100882.97
2019-05-20T20:22:30.258Z,100882.92
2019-05-20T20:24:58.311Z,100884.66
2019-05-20T20:27:25.316Z,100890.77
2019-05-20T20:29:52.314Z,100888.19
2019-05-20T20:32:35.160Z,100893.41
2019-05-20T20:34:48.283Z,100898.69
2019-05-20T20:37:15.242Z,100902.22
2019-05-20T20:39:42.270Z,100894.81
2019-05-20T20:42:09.286Z,100896.48
2019-05-20T20:44:36.290Z,100898.22
2019-05-20T20:47:03.291Z,100892.84
2019-05-20T20:49:30.881Z,100901.77
2019-05-20T20:51:58.489Z,100899.45
2019-05-20T20:54:25.456Z,100899.86
2019-05-20T20:56:52.480Z,100902.53
2019-05-20T20:59:19.604Z,100896.33
2019-05-20T21:01:46.607Z,100895.47
2019-05-20T21:04:13.680Z,100899.83
2019-05-20T21:06:40.676Z,100916.14
2019-05-20T21:09:07.735Z,100913.00
2019-05-20T21:11:34.708Z,100913.90
2019-05-20T21:14:01.780Z,100909.92
2019-05-20T21:16:28.738Z,100906.89
2019-05-20T21:18:55.761Z,100907.70
2019-05-20T21:21:22.706Z,100913.05
2019-05-20T21:23:49.674Z,100907.30
2019-05-20T21:26:20.136Z,100912.50
2019-05-20T21:28:47.209Z,100914.15
2019-05-20T21:31:15.903Z,100913.64
2019-05-20T21:33:42.998Z,100919.30
2019-05-20T21:36:09.965Z,100911.82
2019-05-20T21:38:38.789Z,100914.41
2019-05-20T21:41:05.804Z,100918.77
2019-05-20T21:43:32.782Z,100921.83
2019-05-20T21:45:59.773Z,100924.47
2019-05-20T21:48:26.801Z,100919.55
2019-05-20T21:50:53.875Z,100923.49
2019-05-20T21:53:21.079Z,100931.84
2019-05-20T21:55:48.230Z,100927.86
2019-05-20T21:58:15.322Z,100931.25
2019-05-20T22:00:50.331Z,100925.08
2019-05-20T22:03:24.388Z,100922.73
2019-05-20T22:05:46.491Z,100914.33
2019-05-20T22:08:13.662Z,100920.95
2019-05-20T22:10:40.928Z,100918.23
2019-05-20T22:13:08.018Z,100919.48
2019-05-20T22:15:35.158Z,100915.09
2019-05-20T22:18:02.229Z,100913.64
2019-05-20T22:20:29.332Z,100905.72
2019-05-20T22:25:58.974Z,100913.03
2019-05-20T22:28:26.037Z,100918.70
2019-05-20T22:31:14.291Z,100907.27
2019-05-20T22:33:42.766Z,100913.81
2019-05-20T22:36:10.103Z,100916.78
2019-05-20T22:38:39.600Z,100909.72
2019-05-20T22:41:06.662Z,100902.20
2019-05-20T22:43:33.765Z,100907.03
2019-05-20T22:46:00.951Z,100911.77
2019-05-20T22:48:28.052Z,100905.53
2019-05-20T22:51:01.246Z,100915.54
2019-05-20T22:53:28.361Z,100910.69
2019-05-20T22:55:55.458Z,100907.09
2019-05-20T22:58:23.642Z,100918.39
2019-05-20T23:00:50.996Z,100912.98
2019-05-20T23:03:18.326Z,100919.11
2019-05-20T23:05:45.408Z,100924.77
2019-05-20T23:08:12.528Z,100924.66
2019-05-20T23:10:39.638Z,100924.13
2019-05-20T23:13:06.834Z,100917.50
2019-05-20T23:15:33.938Z,100920.11
2019-05-20T23:18:01.024Z,100927.89
2019-05-20T23:20:28.143Z,100929.58
2019-05-20T23:22:55.409Z,100925.97
2019-05-20T23:25:22.474Z,100929.53
2019-05-20T23:27:49.555Z,100926.44
2019-05-20T23:30:16.937Z,100928.70
2019-05-20T23:32:44.089Z,100930.27
2019-05-20T23:35:11.266Z,100935.55
2019-05-20T23:37:38.602Z,100931.94
2019-05-20T23:40:06.219Z,100927.53
2019-05-20T23:42:33.418Z,100933.26
2019-05-20T23:45:02.065Z,100926.64
2019-05-20T23:47:29.160Z,100932.31
2019-05-20T23:49:56.236Z,100941.59
2019-05-20T23:52:23.448Z,100945.93
2019-05-20T23:54:50.525Z,100947.67
2019-05-20T23:57:17.603Z,100946.79
2019-05-20T23:59:44.689Z,100946.79
